sensor_id;sensor_type;location;lat;lon;timestamp;temperature;humidity
7388;DHT22;3735;50.136;11.062;2023-07-29T00:02:08;18.70;99.90
7388;DHT22;3735;50.136;11.062;2023-07-29T00:04:33;18.70;99.90
7388;DHT22;3735;50.136;11.062;2023-07-29T00:06:59;18.80;99.90
7388;DHT22;3735;50.136;11.062;2023-07-29T00:09:25;18.70;99.90
7388;DHT22;3735;50.136;11.062;2023-07-29T00:11:51;18.70;99.90
7388;DHT22;3735;50.136;11.062;2023-07-29T00:14:16;18.60;99.90
7388;DHT22;3735;50.136;11.062;2023-07-29T00:16:42;18.60;99.90
7388;DHT22;3735;50.136;11.062;2023-07-29T00:19:08;18.50;99.90
7388;DHT22;3735;50.136;11.062;2023-07-29T00:21:34;18.50;99.90
7388;DHT22;3735;50.136;11.062;2023-07-29T00:24:00;18.50;99.90
7388;DHT22;3735;50.136;11.062;2023-07-29T00:26:27;18.40;99.90
7388;DHT22;3735;50.136;11.062;2023-07-29T00:28:55;18.40;99.90
7388;DHT22;3735;50.136;11.062;2023-07-29T00:31:21;18.40;99.90
7388;DHT22;3735;50.136;11.062;2023-07-29T00:33:47;18.40;99.90
7388;DHT22;3735;50.136;11.062;2023-07-29T00:36:13;18.40;99.90
7388;DHT22;3735;50.136;11.062;2023-07-29T00:38:38;18.40;99.90
7388;DHT22;3735;50.136;11.062;2023-07-29T00:41:04;18.50;99.90
7388;DHT22;3735;50.136;11.062;2023-07-29T00:43:30;18.50;99.90
7388;DHT22;3735;50.136;11.062;2023-07-29T00:45:56;18.50;99.90
7388;DHT22;3735;50.136;11.062;2023-07-29T00:48:25;18.50;99.90
7388;DHT22;3735;50.136;11.062;2023-07-29T00:50:51;18.50;99.90
7388;DHT22;3735;50.136;11.062;2023-07-29T00:53:18;18.60;99.90
7388;DHT22;3735;50.136;11.062;2023-07-29T00:55:43;18.60;99.90
7388;DHT22;3735;50.136;11.062;2023-07-29T00:58:10;18.50;99.90
7388;DHT22;3735;50.136;11.062;2023-07-29T01:00:36;18.50;99.90
7388;DHT22;3735;50.136;11.062;2023-07-29T01:03:02;18.50;99.90
7388;DHT22;3735;50.136;11.062;2023-07-29T01:05:49;18.60;99.90
7388;DHT22;3735;50.136;11.062;2023-07-29T01:08:59;18.50;99.90
7388;DHT22;3735;50.136;11.062;2023-07-29T01:14:34;18.50;99.90
7388;DHT22;3735;50.136;11.062;2023-07-29T01:17:08;18.50;99.90
7388;DHT22;3735;50.136;11.062;2023-07-29T01:22:37;18.50;99.90
7388;DHT22;3735;50.136;11.062;2023-07-29T01:25:05;18.50;99.90
7388;DHT22;3735;50.136;11.062;2023-07-29T01:27:32;18.50;99.90
7388;DHT22;3735;50.136;11.062;2023-07-29T01:29:58;18.50;99.90
7388;DHT22;3735;50.136;11.062;2023-07-29T01:38:07;18.50;99.90
7388;DHT22;3735;50.136;11.062;2023-07-29T01:40:40;18.50;99.90
7388;DHT22;3735;50.136;11.062;2023-07-29T01:43:08;18.50;99.90
7388;DHT22;3735;50.136;11.062;2023-07-29T01:45:34;18.50;99.90
7388;DHT22;3735;50.136;11.062;2023-07-29T01:48:07;18.50;99.90
7388;DHT22;3735;50.136;11.062;2023-07-29T01:50:33;18.40;99.90
7388;DHT22;3735;50.136;11.062;2023-07-29T01:53:00;18.40;99.90
7388;DHT22;3735;50.136;11.062;2023-07-29T01:55:26;18.40;99.90
7388;DHT22;3735;50.136;11.062;2023-07-29T01:57:52;18.40;99.90
7388;DHT22;3735;50.136;11.062;2023-07-29T02:00:21;18.40;99.90
7388;DHT22;3735;50.136;11.062;2023-07-29T02:02:47;18.40;99.90
7388;DHT22;3735;50.136;11.062;2023-07-29T02:05:12;18.40;99.90
7388;DHT22;3735;50.136;11.062;2023-07-29T02:07:38;18.40;99.90
7388;DHT22;3735;50.136;11.062;2023-07-29T02:10:04;18.40;99.90
7388;DHT22;3735;50.136;11.062;2023-07-29T02:12:30;18.40;99.90
7388;DHT22;3735;50.136;11.062;2023-07-29T02:14:56;18.40;99.90
7388;DHT22;3735;50.136;11.062;2023-07-29T02:17:21;18.40;99.90
7388;DHT22;3735;50.136;11.062;2023-07-29T02:19:47;18.40;99.90
7388;DHT22;3735;50.136;11.062;2023-07-29T02:22:14;18.40;99.90
7388;DHT22;3735;50.136;11.062;2023-07-29T02:24:43;18.40;99.90
7388;DHT22;3735;50.136;11.062;2023-07-29T02:27:09;18.30;99.90
7388;DHT22;3735;50.136;11.062;2023-07-29T02:29:34;18.30;99.90
7388;DHT22;3735;50.136;11.062;2023-07-29T02:32:00;18.30;99.90
7388;DHT22;3735;50.136;11.062;2023-07-29T02:34:26;18.30;99.90
7388;DHT22;3735;50.136;11.062;2023-07-29T02:36:52;18.30;99.90
7388;DHT22;3735;50.136;11.062;2023-07-29T02:39:18;18.30;99.90
7388;DHT22;3735;50.136;11.062;2023-07-29T02:41:43;18.30;99.90
7388;DHT22;3735;50.136;11.062;2023-07-29T02:44:09;18.30;99.90
7388;DHT22;3735;50.136;11.062;2023-07-29T02:46:35;18.30;99.90
7388;DHT22;3735;50.136;11.062;2023-07-29T02:49:02;18.30;99.90
7388;DHT22;3735;50.136;11.062;2023-07-29T02:51:29;18.20;99.90
7388;DHT22;3735;50.136;11.062;2023-07-29T02:53:56;18.10;99.90
7388;DHT22;3735;50.136;11.062;2023-07-29T02:56:22;18.10;99.90
7388;DHT22;3735;50.136;11.062;2023-07-29T02:58:48;18.00;99.90
7388;DHT22;3735;50.136;11.062;2023-07-29T03:01:13;17.90;99.90
7388;DHT22;3735;50.136;11.062;2023-07-29T03:03:39;17.80;99.90
7388;DHT22;3735;50.136;11.062;2023-07-29T03:06:10;17.70;99.90
7388;DHT22;3735;50.136;11.062;2023-07-29T03:08:36;17.70;99.90
7388;DHT22;3735;50.136;11.062;2023-07-29T03:11:10;17.80;99.90
7388;DHT22;3735;50.136;11.062;2023-07-29T03:13:38;17.80;99.90
7388;DHT22;3735;50.136;11.062;2023-07-29T03:16:11;17.80;99.90
7388;DHT22;3735;50.136;11.062;2023-07-29T03:18:40;17.80;99.90
7388;DHT22;3735;50.136;11.062;2023-07-29T03:21:07;17.80;99.90
7388;DHT22;3735;50.136;11.062;2023-07-29T03:23:34;17.70;99.90
7388;DHT22;3735;50.136;11.062;2023-07-29T03:26:01;17.60;99.90
7388;DHT22;3735;50.136;11.062;2023-07-29T03:28:32;17.50;99.90
7388;DHT22;3735;50.136;11.062;2023-07-29T03:30:59;17.50;99.90
7388;DHT22;3735;50.136;11.062;2023-07-29T03:33:25;17.40;99.90
7388;DHT22;3735;50.136;11.062;2023-07-29T03:35:52;17.30;99.90
7388;DHT22;3735;50.136;11.062;2023-07-29T03:38:19;17.20;99.90
7388;DHT22;3735;50.136;11.062;2023-07-29T03:40:45;17.20;99.90
7388;DHT22;3735;50.136;11.062;2023-07-29T03:43:11;17.20;99.90
7388;DHT22;3735;50.136;11.062;2023-07-29T03:45:37;17.10;99.90
7388;DHT22;3735;50.136;11.062;2023-07-29T03:48:04;17.10;99.90
7388;DHT22;3735;50.136;11.062;2023-07-29T03:50:30;17.10;99.90
7388;DHT22;3735;50.136;11.062;2023-07-29T03:52:56;17.00;99.90
7388;DHT22;3735;50.136;11.062;2023-07-29T03:55:22;17.10;99.90
7388;DHT22;3735;50.136;11.062;2023-07-29T03:57:48;17.10;99.90
7388;DHT22;3735;50.136;11.062;2023-07-29T04:00:14;17.20;99.90
7388;DHT22;3735;50.136;11.062;2023-07-29T04:02:41;17.30;99.90
7388;DHT22;3735;50.136;11.062;2023-07-29T04:05:08;17.40;99.90
7388;DHT22;3735;50.136;11.062;2023-07-29T04:07:35;17.50;99.90
7388;DHT22;3735;50.136;11.062;2023-07-29T04:10:01;17.60;99.90
7388;DHT22;3735;50.136;11.062;2023-07-29T04:12:28;17.60;99.90
7388;DHT22;3735;50.136;11.062;2023-07-29T04:14:53;17.70;99.90
7388;DHT22;3735;50.136;11.062;2023-07-29T04:17:19;17.80;99.90
7388;DHT22;3735;50.136;11.062;2023-07-29T04:19:45;17.80;99.90
7388;DHT22;3735;50.136;11.062;2023-07-29T04:22:11;17.80;99.90
7388;DHT22;3735;50.136;11.062;2023-07-29T04:24:37;17.80;99.90
7388;DHT22;3735;50.136;11.062;2023-07-29T04:27:03;17.80;99.90
7388;DHT22;3735;50.136;11.062;2023-07-29T04:29:29;17.80;99.90
7388;DHT22;3735;50.136;11.062;2023-07-29T04:31:55;17.80;99.90
7388;DHT22;3735;50.136;11.062;2023-07-29T04:34:21;17.70;99.90
7388;DHT22;3735;50.136;11.062;2023-07-29T04:36:47;17.80;99.90
7388;DHT22;3735;50.136;11.062;2023-07-29T04:39:13;17.90;99.90
7388;DHT22;3735;50.136;11.062;2023-07-29T04:41:39;18.00;99.90
7388;DHT22;3735;50.136;11.062;2023-07-29T04:44:06;18.20;99.90
7388;DHT22;3735;50.136;11.062;2023-07-29T04:46:32;18.50;99.90
7388;DHT22;3735;50.136;11.062;2023-07-29T04:48:58;19.00;99.90
7388;DHT22;3735;50.136;11.062;2023-07-29T04:51:24;19.60;99.90
7388;DHT22;3735;50.136;11.062;2023-07-29T04:53:50;20.10;99.90
7388;DHT22;3735;50.136;11.062;2023-07-29T04:56:16;20.40;99.90
7388;DHT22;3735;50.136;11.062;2023-07-29T04:58:42;20.50;99.90
7388;DHT22;3735;50.136;11.062;2023-07-29T05:01:08;20.60;99.90
7388;DHT22;3735;50.136;11.062;2023-07-29T05:03:34;20.30;99.90
7388;DHT22;3735;50.136;11.062;2023-07-29T05:06:00;19.60;99.90
7388;DHT22;3735;50.136;11.062;2023-07-29T05:08:27;19.00;99.90
7388;DHT22;3735;50.136;11.062;2023-07-29T05:10:53;18.50;99.90
7388;DHT22;3735;50.136;11.062;2023-07-29T05:13:20;18.10;99.90
7388;DHT22;3735;50.136;11.062;2023-07-29T05:15:47;17.90;99.90
7388;DHT22;3735;50.136;11.062;2023-07-29T05:18:14;17.70;99.90
7388;DHT22;3735;50.136;11.062;2023-07-29T05:20:41;17.60;99.90
7388;DHT22;3735;50.136;11.062;2023-07-29T05:23:07;17.60;99.90
7388;DHT22;3735;50.136;11.062;2023-07-29T05:25:33;17.50;99.90
7388;DHT22;3735;50.136;11.062;2023-07-29T05:28:02;17.40;99.90
7388;DHT22;3735;50.136;11.062;2023-07-29T05:30:29;17.30;99.90
7388;DHT22;3735;50.136;11.062;2023-07-29T05:33:05;17.30;99.90
7388;DHT22;3735;50.136;11.062;2023-07-29T05:35:33;17.30;99.90
7388;DHT22;3735;50.136;11.062;2023-07-29T05:37:58;17.30;99.90
7388;DHT22;3735;50.136;11.062;2023-07-29T05:40:24;17.30;99.90
7388;DHT22;3735;50.136;11.062;2023-07-29T05:42:50;17.30;99.90
7388;DHT22;3735;50.136;11.062;2023-07-29T05:45:15;17.40;99.90
7388;DHT22;3735;50.136;11.062;2023-07-29T05:47:41;17.40;99.90
7388;DHT22;3735;50.136;11.062;2023-07-29T05:50:07;17.40;99.90
7388;DHT22;3735;50.136;11.062;2023-07-29T05:52:34;17.50;99.90
7388;DHT22;3735;50.136;11.062;2023-07-29T05:55:00;17.70;99.90
7388;DHT22;3735;50.136;11.062;2023-07-29T05:57:26;17.90;99.90
7388;DHT22;3735;50.136;11.062;2023-07-29T05:59:52;18.10;99.90
7388;DHT22;3735;50.136;11.062;2023-07-29T06:02:17;18.20;99.90
7388;DHT22;3735;50.136;11.062;2023-07-29T06:04:43;18.30;99.90
7388;DHT22;3735;50.136;11.062;2023-07-29T06:07:09;18.40;99.90
7388;DHT22;3735;50.136;11.062;2023-07-29T06:09:35;18.60;99.90
7388;DHT22;3735;50.136;11.062;2023-07-29T06:12:01;18.70;99.90
7388;DHT22;3735;50.136;11.062;2023-07-29T06:14:26;18.90;99.90
7388;DHT22;3735;50.136;11.062;2023-07-29T06:16:52;19.00;99.90
7388;DHT22;3735;50.136;11.062;2023-07-29T06:19:20;19.10;99.90
7388;DHT22;3735;50.136;11.062;2023-07-29T06:21:46;19.10;99.90
7388;DHT22;3735;50.136;11.062;2023-07-29T06:24:13;19.20;99.90
7388;DHT22;3735;50.136;11.062;2023-07-29T06:26:39;19.10;99.90
7388;DHT22;3735;50.136;11.062;2023-07-29T06:29:05;19.00;99.90
7388;DHT22;3735;50.136;11.062;2023-07-29T06:31:31;18.90;99.90
7388;DHT22;3735;50.136;11.062;2023-07-29T06:33:58;18.80;99.90
7388;DHT22;3735;50.136;11.062;2023-07-29T06:36:24;18.80;99.90
7388;DHT22;3735;50.136;11.062;2023-07-29T06:38:50;18.80;99.90
7388;DHT22;3735;50.136;11.062;2023-07-29T06:41:15;18.80;99.90
7388;DHT22;3735;50.136;11.062;2023-07-29T06:43:42;18.80;99.90
7388;DHT22;3735;50.136;11.062;2023-07-29T06:46:07;18.90;99.90
7388;DHT22;3735;50.136;11.062;2023-07-29T06:48:33;18.90;99.90
7388;DHT22;3735;50.136;11.062;2023-07-29T06:50:59;18.70;99.90
7388;DHT22;3735;50.136;11.062;2023-07-29T06:53:26;18.60;99.90
7388;DHT22;3735;50.136;11.062;2023-07-29T06:55:52;18.60;99.90
7388;DHT22;3735;50.136;11.062;2023-07-29T06:58:19;18.60;99.90
7388;DHT22;3735;50.136;11.062;2023-07-29T07:00:45;18.70;99.90
7388;DHT22;3735;50.136;11.062;2023-07-29T07:03:10;18.90;99.90
7388;DHT22;3735;50.136;11.062;2023-07-29T07:05:36;19.10;99.90
7388;DHT22;3735;50.136;11.062;2023-07-29T07:08:02;19.30;99.90
7388;DHT22;3735;50.136;11.062;2023-07-29T07:10:28;19.30;99.90
7388;DHT22;3735;50.136;11.062;2023-07-29T07:12:54;19.20;99.90
7388;DHT22;3735;50.136;11.062;2023-07-29T07:15:20;19.20;99.90
7388;DHT22;3735;50.136;11.062;2023-07-29T07:17:46;19.10;99.90
7388;DHT22;3735;50.136;11.062;2023-07-29T07:20:12;19.10;99.90
7388;DHT22;3735;50.136;11.062;2023-07-29T07:22:37;18.90;99.90
7388;DHT22;3735;50.136;11.062;2023-07-29T07:25:04;18.90;99.90
7388;DHT22;3735;50.136;11.062;2023-07-29T07:27:30;19.00;99.90
7388;DHT22;3735;50.136;11.062;2023-07-29T07:29:56;19.00;99.90
7388;DHT22;3735;50.136;11.062;2023-07-29T07:32:22;19.00;99.90
7388;DHT22;3735;50.136;11.062;2023-07-29T07:34:48;18.90;99.90
7388;DHT22;3735;50.136;11.062;2023-07-29T07:37:14;19.00;99.90
7388;DHT22;3735;50.136;11.062;2023-07-29T07:39:40;19.20;99.90
7388;DHT22;3735;50.136;11.062;2023-07-29T07:42:06;19.20;99.90
7388;DHT22;3735;50.136;11.062;2023-07-29T07:44:31;19.10;99.90
7388;DHT22;3735;50.136;11.062;2023-07-29T07:46:57;18.90;99.90
7388;DHT22;3735;50.136;11.062;2023-07-29T07:49:23;19.00;99.90
7388;DHT22;3735;50.136;11.062;2023-07-29T07:51:49;19.10;99.90
7388;DHT22;3735;50.136;11.062;2023-07-29T07:54:15;19.20;99.90
7388;DHT22;3735;50.136;11.062;2023-07-29T07:56:40;19.20;99.90
7388;DHT22;3735;50.136;11.062;2023-07-29T07:59:06;19.30;99.90
7388;DHT22;3735;50.136;11.062;2023-07-29T08:01:36;19.40;99.90
7388;DHT22;3735;50.136;11.062;2023-07-29T08:04:02;19.50;99.90
7388;DHT22;3735;50.136;11.062;2023-07-29T08:06:29;19.70;99.90
7388;DHT22;3735;50.136;11.062;2023-07-29T08:08:56;19.80;99.90
7388;DHT22;3735;50.136;11.062;2023-07-29T08:11:22;19.90;99.90
7388;DHT22;3735;50.136;11.062;2023-07-29T08:13:48;19.90;99.90
7388;DHT22;3735;50.136;11.062;2023-07-29T08:16:14;19.80;99.90
7388;DHT22;3735;50.136;11.062;2023-07-29T08:18:40;19.90;99.90
7388;DHT22;3735;50.136;11.062;2023-07-29T08:21:06;19.90;99.90
7388;DHT22;3735;50.136;11.062;2023-07-29T08:23:36;19.90;99.90
7388;DHT22;3735;50.136;11.062;2023-07-29T08:26:05;19.90;99.90
7388;DHT22;3735;50.136;11.062;2023-07-29T08:28:33;19.80;99.90
7388;DHT22;3735;50.136;11.062;2023-07-29T08:31:00;19.80;99.90
7388;DHT22;3735;50.136;11.062;2023-07-29T08:33:27;19.70;99.90
7388;DHT22;3735;50.136;11.062;2023-07-29T08:35:53;19.60;99.90
7388;DHT22;3735;50.136;11.062;2023-07-29T08:38:20;19.30;99.90
7388;DHT22;3735;50.136;11.062;2023-07-29T08:40:54;19.20;99.90
7388;DHT22;3735;50.136;11.062;2023-07-29T08:43:45;19.20;99.90
7388;DHT22;3735;50.136;11.062;2023-07-29T08:46:19;19.30;99.90
7388;DHT22;3735;50.136;11.062;2023-07-29T08:48:46;19.50;99.90
7388;DHT22;3735;50.136;11.062;2023-07-29T08:51:12;19.70;99.90
7388;DHT22;3735;50.136;11.062;2023-07-29T08:53:39;19.80;99.90
7388;DHT22;3735;50.136;11.062;2023-07-29T08:56:06;19.80;99.90
7388;DHT22;3735;50.136;11.062;2023-07-29T08:58:33;19.70;99.90
7388;DHT22;3735;50.136;11.062;2023-07-29T09:00:59;19.90;99.90
7388;DHT22;3735;50.136;11.062;2023-07-29T09:03:25;20.20;99.90
7388;DHT22;3735;50.136;11.062;2023-07-29T09:05:51;20.60;99.90
7388;DHT22;3735;50.136;11.062;2023-07-29T09:08:18;20.90;99.90
7388;DHT22;3735;50.136;11.062;2023-07-29T09:10:44;21.30;99.90
7388;DHT22;3735;50.136;11.062;2023-07-29T09:13:10;21.70;99.90
7388;DHT22;3735;50.136;11.062;2023-07-29T09:15:36;22.00;99.90
7388;DHT22;3735;50.136;11.062;2023-07-29T09:18:16;22.50;99.90
7388;DHT22;3735;50.136;11.062;2023-07-29T09:20:49;22.80;99.90
7388;DHT22;3735;50.136;11.062;2023-07-29T09:23:15;22.80;99.90
7388;DHT22;3735;50.136;11.062;2023-07-29T09:25:42;22.50;99.90
7388;DHT22;3735;50.136;11.062;2023-07-29T09:28:10;22.30;99.90
7388;DHT22;3735;50.136;11.062;2023-07-29T09:30:41;21.90;99.90
7388;DHT22;3735;50.136;11.062;2023-07-29T09:33:11;21.50;99.90
7388;DHT22;3735;50.136;11.062;2023-07-29T09:35:38;21.10;99.90
7388;DHT22;3735;50.136;11.062;2023-07-29T09:38:07;20.90;99.90
7388;DHT22;3735;50.136;11.062;2023-07-29T09:40:40;20.60;99.90
7388;DHT22;3735;50.136;11.062;2023-07-29T09:43:08;20.50;99.90
7388;DHT22;3735;50.136;11.062;2023-07-29T09:45:36;20.30;99.90
7388;DHT22;3735;50.136;11.062;2023-07-29T09:48:03;20.00;99.90
7388;DHT22;3735;50.136;11.062;2023-07-29T09:50:35;19.70;99.90
7388;DHT22;3735;50.136;11.062;2023-07-29T09:53:02;19.30;99.90
7388;DHT22;3735;50.136;11.062;2023-07-29T09:55:28;19.00;99.90
7388;DHT22;3735;50.136;11.062;2023-07-29T09:57:58;18.70;99.90
7388;DHT22;3735;50.136;11.062;2023-07-29T10:00:28;18.70;99.90
7388;DHT22;3735;50.136;11.062;2023-07-29T10:02:59;18.80;99.90
7388;DHT22;3735;50.136;11.062;2023-07-29T10:05:37;19.30;99.90
7388;DHT22;3735;50.136;11.062;2023-07-29T10:08:04;19.70;99.90
7388;DHT22;3735;50.136;11.062;2023-07-29T10:10:30;20.10;99.90
7388;DHT22;3735;50.136;11.062;2023-07-29T10:12:56;20.20;99.90
7388;DHT22;3735;50.136;11.062;2023-07-29T10:15:23;20.30;99.90
7388;DHT22;3735;50.136;11.062;2023-07-29T10:17:50;20.50;99.90
7388;DHT22;3735;50.136;11.062;2023-07-29T10:20:17;20.90;99.90
7388;DHT22;3735;50.136;11.062;2023-07-29T10:22:43;22.30;99.90
7388;DHT22;3735;50.136;11.062;2023-07-29T10:25:17;24.20;99.90
7388;DHT22;3735;50.136;11.062;2023-07-29T10:27:56;25.70;99.90
7388;DHT22;3735;50.136;11.062;2023-07-29T10:30:30;26.60;99.90
7388;DHT22;3735;50.136;11.062;2023-07-29T10:32:59;26.80;99.90
7388;DHT22;3735;50.136;11.062;2023-07-29T10:35:27;26.90;99.90
7388;DHT22;3735;50.136;11.062;2023-07-29T10:37:54;26.20;99.90
7388;DHT22;3735;50.136;11.062;2023-07-29T10:40:21;25.50;99.90
7388;DHT22;3735;50.136;11.062;2023-07-29T10:43:09;25.00;99.90
7388;DHT22;3735;50.136;11.062;2023-07-29T10:45:40;25.00;99.90
7388;DHT22;3735;50.136;11.062;2023-07-29T10:48:10;25.20;99.90
7388;DHT22;3735;50.136;11.062;2023-07-29T10:50:37;25.40;99.90
7388;DHT22;3735;50.136;11.062;2023-07-29T10:53:04;26.30;99.90
7388;DHT22;3735;50.136;11.062;2023-07-29T10:55:34;27.00;99.90
7388;DHT22;3735;50.136;11.062;2023-07-29T10:58:16;28.00;99.90
7388;DHT22;3735;50.136;11.062;2023-07-29T11:00:43;29.60;99.90
7388;DHT22;3735;50.136;11.062;2023-07-29T11:03:14;31.20;99.90
7388;DHT22;3735;50.136;11.062;2023-07-29T11:05:51;31.60;99.90
7388;DHT22;3735;50.136;11.062;2023-07-29T11:08:22;31.90;99.90
7388;DHT22;3735;50.136;11.062;2023-07-29T11:11:07;31.70;99.90
7388;DHT22;3735;50.136;11.062;2023-07-29T11:13:35;31.00;99.90
7388;DHT22;3735;50.136;11.062;2023-07-29T11:16:03;30.30;99.90
7388;DHT22;3735;50.136;11.062;2023-07-29T11:18:34;30.30;99.90
7388;DHT22;3735;50.136;11.062;2023-07-29T11:21:03;29.90;99.90
7388;DHT22;3735;50.136;11.062;2023-07-29T11:23:30;28.90;99.90
7388;DHT22;3735;50.136;11.062;2023-07-29T11:25:57;28.00;99.90
7388;DHT22;3735;50.136;11.062;2023-07-29T11:28:26;27.90;99.90
7388;DHT22;3735;50.136;11.062;2023-07-29T11:30:52;27.90;99.90
7388;DHT22;3735;50.136;11.062;2023-07-29T11:33:25;27.60;99.90
7388;DHT22;3735;50.136;11.062;2023-07-29T11:35:54;27.00;99.90
7388;DHT22;3735;50.136;11.062;2023-07-29T11:38:21;27.50;99.90
7388;DHT22;3735;50.136;11.062;2023-07-29T11:40:58;28.80;99.90
7388;DHT22;3735;50.136;11.062;2023-07-29T11:43:26;28.80;99.90
7388;DHT22;3735;50.136;11.062;2023-07-29T11:45:52;28.90;99.90
7388;DHT22;3735;50.136;11.062;2023-07-29T11:48:31;30.10;99.90
7388;DHT22;3735;50.136;11.062;2023-07-29T11:50:58;31.00;99.90
7388;DHT22;3735;50.136;11.062;2023-07-29T11:53:28;30.20;99.90
7388;DHT22;3735;50.136;11.062;2023-07-29T11:55:55;29.40;99.90
7388;DHT22;3735;50.136;11.062;2023-07-29T11:58:21;28.60;99.90
7388;DHT22;3735;50.136;11.062;2023-07-29T12:00:47;28.30;99.90
7388;DHT22;3735;50.136;11.062;2023-07-29T12:03:14;28.00;99.90
7388;DHT22;3735;50.136;11.062;2023-07-29T12:05:43;27.50;99.90
7388;DHT22;3735;50.136;11.062;2023-07-29T12:08:09;26.90;99.90
7388;DHT22;3735;50.136;11.062;2023-07-29T12:10:35;26.40;99.90
7388;DHT22;3735;50.136;11.062;2023-07-29T12:13:02;26.20;99.90
7388;DHT22;3735;50.136;11.062;2023-07-29T12:15:29;26.10;99.90
7388;DHT22;3735;50.136;11.062;2023-07-29T12:17:56;26.10;99.90
7388;DHT22;3735;50.136;11.062;2023-07-29T12:20:22;26.10;99.90
7388;DHT22;3735;50.136;11.062;2023-07-29T12:22:53;26.00;99.90
7388;DHT22;3735;50.136;11.062;2023-07-29T12:25:20;26.10;99.90
7388;DHT22;3735;50.136;11.062;2023-07-29T12:27:47;27.40;99.90
7388;DHT22;3735;50.136;11.062;2023-07-29T12:30:13;29.80;99.90
7388;DHT22;3735;50.136;11.062;2023-07-29T12:32:46;31.30;99.90
7388;DHT22;3735;50.136;11.062;2023-07-29T12:35:12;32.10;99.90
7388;DHT22;3735;50.136;11.062;2023-07-29T12:37:38;32.20;99.90
7388;DHT22;3735;50.136;11.062;2023-07-29T12:40:20;32.90;99.90
7388;DHT22;3735;50.136;11.062;2023-07-29T12:42:50;33.00;99.90
7388;DHT22;3735;50.136;11.062;2023-07-29T12:45:17;33.00;99.90
7388;DHT22;3735;50.136;11.062;2023-07-29T12:47:43;33.20;99.90
7388;DHT22;3735;50.136;11.062;2023-07-29T12:50:09;33.50;99.90
7388;DHT22;3735;50.136;11.062;2023-07-29T12:52:35;32.60;99.90
7388;DHT22;3735;50.136;11.062;2023-07-29T12:55:00;31.50;99.90
7388;DHT22;3735;50.136;11.062;2023-07-29T12:57:26;31.40;99.90
7388;DHT22;3735;50.136;11.062;2023-07-29T12:59:52;32.00;99.90
7388;DHT22;3735;50.136;11.062;2023-07-29T13:02:18;33.40;99.90
7388;DHT22;3735;50.136;11.062;2023-07-29T13:04:43;33.50;99.90
7388;DHT22;3735;50.136;11.062;2023-07-29T13:07:09;33.20;99.90
7388;DHT22;3735;50.136;11.062;2023-07-29T13:09:35;32.80;99.90
7388;DHT22;3735;50.136;11.062;2023-07-29T13:12:01;31.10;99.90
7388;DHT22;3735;50.136;11.062;2023-07-29T13:14:27;30.10;99.90
7388;DHT22;3735;50.136;11.062;2023-07-29T13:16:53;31.10;99.90
7388;DHT22;3735;50.136;11.062;2023-07-29T13:19:19;32.30;99.90
7388;DHT22;3735;50.136;11.062;2023-07-29T13:21:45;33.20;99.90
7388;DHT22;3735;50.136;11.062;2023-07-29T13:24:10;33.30;99.90
7388;DHT22;3735;50.136;11.062;2023-07-29T13:26:36;33.00;99.90
7388;DHT22;3735;50.136;11.062;2023-07-29T13:29:02;32.70;99.90
7388;DHT22;3735;50.136;11.062;2023-07-29T13:31:29;32.60;99.90
7388;DHT22;3735;50.136;11.062;2023-07-29T13:33:56;32.00;99.90
7388;DHT22;3735;50.136;11.062;2023-07-29T13:36:21;32.20;99.90
7388;DHT22;3735;50.136;11.062;2023-07-29T13:38:47;33.00;99.90
7388;DHT22;3735;50.136;11.062;2023-07-29T13:41:13;33.20;99.90
7388;DHT22;3735;50.136;11.062;2023-07-29T13:43:39;32.90;99.90
7388;DHT22;3735;50.136;11.062;2023-07-29T13:46:05;33.20;99.90
7388;DHT22;3735;50.136;11.062;2023-07-29T13:48:30;34.30;99.90
7388;DHT22;3735;50.136;11.062;2023-07-29T13:50:58;34.30;99.90
7388;DHT22;3735;50.136;11.062;2023-07-29T13:53:24;33.40;99.90
7388;DHT22;3735;50.136;11.062;2023-07-29T13:55:51;34.20;99.90
7388;DHT22;3735;50.136;11.062;2023-07-29T13:58:16;34.60;99.90
7388;DHT22;3735;50.136;11.062;2023-07-29T14:00:42;34.30;99.90
7388;DHT22;3735;50.136;11.062;2023-07-29T14:03:08;34.20;99.90
7388;DHT22;3735;50.136;11.062;2023-07-29T14:05:34;33.80;99.90
7388;DHT22;3735;50.136;11.062;2023-07-29T14:08:00;33.50;99.90
7388;DHT22;3735;50.136;11.062;2023-07-29T14:10:26;34.20;99.90
7388;DHT22;3735;50.136;11.062;2023-07-29T14:12:51;34.70;99.90
7388;DHT22;3735;50.136;11.062;2023-07-29T14:15:17;34.60;99.90
7388;DHT22;3735;50.136;11.062;2023-07-29T14:17:43;34.60;99.90
7388;DHT22;3735;50.136;11.062;2023-07-29T14:20:10;34.00;99.90
7388;DHT22;3735;50.136;11.062;2023-07-29T14:22:36;33.20;99.90
7388;DHT22;3735;50.136;11.062;2023-07-29T14:25:01;32.90;99.90
7388;DHT22;3735;50.136;11.062;2023-07-29T14:27:27;31.90;99.90
7388;DHT22;3735;50.136;11.062;2023-07-29T14:29:53;31.30;99.90
7388;DHT22;3735;50.136;11.062;2023-07-29T14:32:19;31.10;99.90
7388;DHT22;3735;50.136;11.062;2023-07-29T14:34:45;29.80;99.90
7388;DHT22;3735;50.136;11.062;2023-07-29T14:37:10;28.60;99.90
7388;DHT22;3735;50.136;11.062;2023-07-29T14:39:36;28.10;99.90
7388;DHT22;3735;50.136;11.062;2023-07-29T14:42:02;27.50;99.90
7388;DHT22;3735;50.136;11.062;2023-07-29T14:44:28;26.90;99.90
7388;DHT22;3735;50.136;11.062;2023-07-29T14:46:54;26.10;99.90
7388;DHT22;3735;50.136;11.062;2023-07-29T14:49:20;25.80;99.90
7388;DHT22;3735;50.136;11.062;2023-07-29T14:51:46;26.50;99.90
7388;DHT22;3735;50.136;11.062;2023-07-29T14:54:11;27.70;99.90
7388;DHT22;3735;50.136;11.062;2023-07-29T14:56:37;27.40;99.90
7388;DHT22;3735;50.136;11.062;2023-07-29T14:59:03;26.70;99.90
7388;DHT22;3735;50.136;11.062;2023-07-29T15:01:28;26.10;99.90
7388;DHT22;3735;50.136;11.062;2023-07-29T15:03:54;25.70;99.90
7388;DHT22;3735;50.136;11.062;2023-07-29T15:06:20;25.40;99.90
7388;DHT22;3735;50.136;11.062;2023-07-29T15:08:46;25.10;99.90
7388;DHT22;3735;50.136;11.062;2023-07-29T15:11:11;24.80;99.90
7388;DHT22;3735;50.136;11.062;2023-07-29T15:13:37;23.70;99.90
7388;DHT22;3735;50.136;11.062;2023-07-29T15:16:03;22.80;99.90
7388;DHT22;3735;50.136;11.062;2023-07-29T15:18:29;21.80;99.90
7388;DHT22;3735;50.136;11.062;2023-07-29T15:20:56;20.60;99.90
7388;DHT22;3735;50.136;11.062;2023-07-29T15:23:23;19.50;99.90
7388;DHT22;3735;50.136;11.062;2023-07-29T15:25:48;18.80;99.90
7388;DHT22;3735;50.136;11.062;2023-07-29T15:28:14;18.30;99.90
7388;DHT22;3735;50.136;11.062;2023-07-29T15:30:40;17.90;99.90
7388;DHT22;3735;50.136;11.062;2023-07-29T15:33:06;17.70;99.90
7388;DHT22;3735;50.136;11.062;2023-07-29T15:35:37;17.60;99.90
7388;DHT22;3735;50.136;11.062;2023-07-29T15:38:06;17.60;99.90
7388;DHT22;3735;50.136;11.062;2023-07-29T15:40:32;17.60;99.90
7388;DHT22;3735;50.136;11.062;2023-07-29T15:42:58;17.70;99.90
7388;DHT22;3735;50.136;11.062;2023-07-29T15:45:24;18.00;99.90
7388;DHT22;3735;50.136;11.062;2023-07-29T15:47:50;18.50;99.90
7388;DHT22;3735;50.136;11.062;2023-07-29T15:50:16;18.60;99.90
7388;DHT22;3735;50.136;11.062;2023-07-29T15:52:42;19.00;99.90
7388;DHT22;3735;50.136;11.062;2023-07-29T15:55:09;19.40;99.90
7388;DHT22;3735;50.136;11.062;2023-07-29T15:57:34;19.50;99.90